Palm Springs, CA

10:29 AM PST en Noviembre 26, 2014 (GMT -0800)
KCAPALMS7 | Change Station
CLOSE
Current Station
Estación meteorológica personal
Location: Palm Springs, CA
Altura: 525 ft
Estaciones meteorológicas cercanas

Alt 525 ft 33.85 °N, 116.53 °W | Updated 11 minutes ago

Despejado
Despejado
72.1 ° F
Sensación térmica 75 ° F
N
0.0
Viento Variable Viento desde NNE
Gusts 1.0 mph

Hoy
Alta -- | Baja -- ° F
--% Posibilidad de precipitaciones
Ayer
Alta -- | Baja -- ° F
Precip. -- pul
6:28 AM 4:38 PM
Creciente, 21% visible
Presión 30.32 pul
Visibilidad 10.0 Millas
Nubes Despejado
Índice de calor 75 ° F
Punto de rocío 29 ° F
Humedad 20%
Precipitaciones 0.00 pul
Espesor de la nieve No disponible.
UV 3 de una escala de 12
Polen 2.60 de una escala de 12
Calidad del aire No disponible.
Flu Activity No disponible.
METAR KPSP 261753Z 00000KT 10SM CLR 21/M04 A3032 RMK AO2 SLP268 T02111039 10211 20072 51007

More Conditions Fewer Conditions

Presión 30.32 pul
Visibilidad 10.0 Millas
Nubes Despejado
Índice de calor 75 ° F
Punto de rocío 29 ° F
Humedad 20%
Precipitaciones 0.00 pul
Espesor de la nieve No disponible.
UV 3 de una escala de 12
Polen 2.60 de una escala de 12
Calidad del aire No disponible.
Flu Activity No disponible.
METAR KPSP 261753Z 00000KT 10SM CLR 21/M04 A3032 RMK AO2 SLP268 T02111039 10211 20072 51007

More Conditions Fewer Conditions

10-Day Weather Forecast

Almanac

Astronomía

Nov. 26, 2014 Salida Puesta
Hora real
Crepúsculo civil
Crepúsculo náutico
Crepúsculo astronómico
Luna
Horas de luz
Horas de luz
Tomorrow will be .
, % of the Moon is Illuminated

Extremos de hoy

Máximos del estado Bajos del estado

Community

WunderPhotos

Upload Photos

1,773,822 ¡fotos cargadas!

WunderBlogs® & News

Nearby

Calidad del aire

  Calidad del aire Índice AQ Contaminante
Not available.

Grosos de nieve

Estación Profundido Altura

Actividad de terremotos

Ciudad Distance Mag. Tiempo y dato
Magnitud mínima muestra es 2,5.

Temperaturas de aguas costeras

Lugar Temperatura

Estaciones meteorológicas cercanas